Flight Track Log - Related Links

Times and Time Zones

All times are in EDT time to prevent confusion due to time zone crossing. See the LBQ968 flight status page for this flight to view local times or setup timezone preferences in your user account.

Time Position Orientation Groundspeed Altitude Reporting Facility
EDT Latitude Longitude Course Direction KTS MPH feet Rate Location/Type
Sat 06:21:54 PM 43.1056 -76.1064 181° South 28 32 1,100  Level Boston Center
Sat 06:22:54 PM 43.1075 -76.0953 77° East 29 33 1,100 30 Level Boston Center
Sat 06:25:16 PM 43.1094 -76.1317 267° West 162 186 1,200 479 Climbing Boston Center
Sat 06:26:02 PM 43.1103 -76.1808 271° West 156 180 2,600 1,645 Climbing Boston Center
Sat 06:26:18 PM 43.1114 -76.1925 277° West 137 158 2,900 982 Climbing Boston Center
Sat 06:26:57 PM 43.1092 -76.2242 265° West 145 167 3,500 984 Climbing Boston Center
Sat 06:27:19 PM 43.1103 -76.2481 274° West 138 159 3,900 500 Climbing Boston Center
Sat 06:27:57 PM 43.1081 -76.2939 266° West 166 191 4,000 98 Climbing Boston Center
Sat 06:28:20 PM 43.1081 -76.3161 270° West 162 186 4,000  Level Boston Center
Sat 06:28:58 PM 43.1083 -76.3672 270° West 203 234 4,000  Level Boston Center
Sat 06:29:21 PM 43.1069 -76.3911 265° West 186 214 4,000  Level Boston Center
Sat 06:29:59 PM 43.1036 -76.4444 265° West 203 234 4,000  Level Boston Center
Sat 06:30:23 PM 43.1047 -76.4672 274° West 195 224 4,000  Level Boston Center
Sat 06:31:24 PM 43.1031 -76.5436 268° West 199 229 4,000  Level Boston Center
Sat 06:32:25 PM 43.1050 -76.6203 272° West 199 229 4,000  Level Boston Center
Sat 06:33:26 PM 43.1058 -76.7031 271° West 200 230 4,000  Level Boston Center
Sat 06:34:28 PM 43.1081 -76.7797 272° West 200 230 4,000  Level Boston Center
Sat 06:35:29 PM 43.1108 -76.8547 273° West 200 230 4,000  Level Boston Center
Sat 06:36:30 PM 43.1011 -76.9281 260° West 199 229 4,000  Level Boston Center
Sat 06:37:35 PM 43.0819 -77.0153 253° West 197 227 4,000  Level Cleveland Center
Sat 06:37:51 PM 43.0783 -77.0264 246° West 198 228 4,000  Level Cleveland Center
Sat 06:38:35 PM 43.0678 -77.0867 257° West 198 228 4,000  Level Cleveland Center
Sat 06:38:53 PM 43.0644 -77.0997 251° West 198 228 4,000  Level Cleveland Center
Sat 06:39:42 PM 43.0528 -77.1639 256° West 196 226 4,000  Level Cleveland Center
Sat 06:39:54 PM 43.0522 -77.1717 264° West 198 228 4,000  Level Cleveland Center
Sat 06:40:37 PM 43.0417 -77.2306 256° West 196 226 4,000  Level Cleveland Center
Sat 06:40:56 PM 43.0389 -77.2436 254° West 198 228 4,000 -222 Level Cleveland Center
Sat 06:41:31 PM 43.0319 -77.3003 261° West 202 232 3,800 -393 Descending Cleveland Center
Sat 06:41:57 PM 43.0308 -77.3186 265° West 198 228 3,600 -590 Descending Cleveland Center
Sat 06:42:32 PM 43.0294 -77.3778 268° West 207 238 3,200 -677 Descending Cleveland Center
Sat 06:42:59 PM 43.0283 -77.4111 267° West 202 232 2,900 -700 Descending Cleveland Center
Sat 06:43:32 PM 43.0275 -77.4522 268° West 198 228 2,500 -393 Descending Cleveland Center
Sat 06:44:00 PM 43.0247 -77.4861 264° West 202 232 2,500  Level Cleveland Center
Sat 06:44:33 PM 43.0236 -77.5264 268° West 189 217 2,500  Level Cleveland Center
Sat 06:45:01 PM 43.0233 -77.5561 269° West 193 222 2,500  Level Cleveland Center
Sat 06:45:34 PM 43.0353 -77.5933 294° West 173 199 2,500  Level Cleveland Center
Sat 06:46:03 PM 43.0450 -77.6150 302° West 187 215 2,500  Level Cleveland Center
Sat 06:46:34 PM 43.0567 -77.6511 294° West 164 189 2,500  Level Cleveland Center
Sat 06:47:04 PM 43.0625 -77.6700 293° West 171 197 2,500 -590 Level Cleveland Center
Sat 06:47:35 PM 43.0786 -77.6914 316° Northwest 131 151 1,900 -1,065 Descending Cleveland Center
Sat 06:48:06 PM 43.0928 -77.6933 354° North 159 183 1,400 -684 Descending Cleveland Center
Sat 06:48:54 PM 43.1153 -77.6722 34° Northeast 97 112 1,000 -590 Descending Cleveland Center
Sat 06:49:07 PM 43.1206 -77.6706 13° North 134 154 800  Descending Cleveland Center
Sat 06:49:36 PM 43.1186 -77.6644 114° Southeast 14 16 1,000 44 Climbing Cleveland Center
Sat 06:53:39 PM 43.1169 -77.6611 124° Southeast 1 1 1,000  Level Cleveland Center
Sat 06:54:39 PM 43.1156 -77.6550 107° East 120 138 1,000  Level Cleveland Center

Login

Don't have an account? Register now (free) for customized features, flight alerts, and more!